Time;durP1;ratioP1;P1;durP2;ratioP2;P2;SDS_P1;SDS_P2;PMS_P1;PMS_P2;Temp;Humidity;BMP_temperature;BMP_pressure;BME280_temperature;BME280_humidity;BME280_pressure;Samples;Min_cycle;Max_cycle;Signal;HPM_P1;HPM_P2
2023/12/16 00:01:21;;;;;;;6.72;2.50;;;;;;;;;;4653064;30;20556;-91
2023/12/16 00:03:48;;;;;;;;;;;;;;;;;;4659522;30;20046;-91
2023/12/16 00:06:15;;;;;;;11.60;3.75;;;;;;;;;;4661308;30;19931;-92
2023/12/16 00:08:41;;;;;;;7.32;3.38;;;;;;;;;;4669331;30;20053;-91
2023/12/16 00:11:07;;;;;;;10.85;3.38;;;;;;;;;;4644504;30;20625;-91
2023/12/16 00:13:33;;;;;;;8.02;3.00;;;;;;;;;;4662262;30;20062;-91
2023/12/16 00:15:59;;;;;;;8.52;2.67;;;;;;;;;;4641638;30;20062;-91
2023/12/16 00:18:26;;;;;;;10.38;2.63;;;;;;;;;;4647106;30;20137;-91
2023/12/16 00:20:53;;;;;;;10.02;2.70;;;;;;;;;;4641806;30;20058;-92
2023/12/16 00:23:19;;;;;;;7.22;3.33;;;;;;;;;;4662595;30;20092;-91
2023/12/16 00:25:45;;;;;;;8.80;2.13;;;;;;;;;;4652271;30;20112;-91
2023/12/16 00:28:11;;;;;;;6.53;2.80;;;;;;;;;;4666666;30;20050;-91
2023/12/16 00:30:37;;;;;;;5.00;2.47;;;;;;;;;;4651554;30;20117;-91
2023/12/16 00:33:03;;;;;;;11.48;2.75;;;;;;;;;;4641485;30;20061;-92
2023/12/16 00:35:29;;;;;;;7.95;2.63;;;;;;;;;;4659582;30;20053;-91
2023/12/16 00:37:55;;;;;;;7.25;2.63;;;;;;;;;;4657866;30;20061;-91
2023/12/16 00:40:21;;;;;;;9.68;3.22;;;;;;;;;;4648414;30;20511;-92
2023/12/16 00:42:51;;;;;;;8.20;2.65;;;;;;;;;;4649064;30;20042;-91
2023/12/16 00:45:17;;;;;;;4.32;2.50;;;;;;;;;;4656162;30;20053;-91
2023/12/16 00:47:43;;;;;;;5.35;2.30;;;;;;;;;;4659914;30;20138;-91
2023/12/16 00:50:10;;;;;;;9.82;2.30;;;;;;;;;;4642844;30;20049;-91
2023/12/16 00:52:36;;;;;;;8.23;3.17;;;;;;;;;;4637555;30;20045;-91
2023/12/16 00:55:03;;;;;;;10.98;2.97;;;;;;;;;;4645098;30;20723;-92
2023/12/16 00:57:29;;;;;;;6.85;2.58;;;;;;;;;;4641125;30;20081;-91
2023/12/16 00:59:55;;;;;;;11.05;2.70;;;;;;;;;;4631507;30;20084;-91
2023/12/16 01:02:21;;;;;;;5.85;2.10;;;;;;;;;;4649296;30;20050;-90
2023/12/16 01:04:51;;;;;;;10.90;2.45;;;;;;;;;;4654236;30;20067;-91
2023/12/16 01:07:17;;;;;;;4.80;2.25;;;;;;;;;;4671304;30;20053;-90
2023/12/16 01:09:44;;;;;;;8.70;2.55;;;;;;;;;;4647663;30;20252;-92
2023/12/16 01:12:12;;;;;;;4.47;2.10;;;;;;;;;;4647046;30;20057;-90
2023/12/16 01:14:38;;;;;;;8.15;2.08;;;;;;;;;;4650690;30;20056;-91
2023/12/16 01:17:05;;;;;;;10.15;3.05;;;;;;;;;;4652367;30;20065;-91
2023/12/16 01:19:31;;;;;;;10.43;2.03;;;;;;;;;;4654684;30;20057;-92
2023/12/16 01:21:57;;;;;;;7.53;2.28;;;;;;;;;;4654798;30;20642;-91
2023/12/16 01:24:23;;;;;;;6.03;1.88;;;;;;;;;;4653081;30;21629;-92
2023/12/16 01:26:51;;;;;;;6.45;2.22;;;;;;;;;;4649209;30;20042;-90
2023/12/16 01:29:17;;;;;;;;;;;;;;;;;;4668871;30;20042;-92
2023/12/16 01:31:43;;;;;;;2.95;2.03;;;;;;;;;;4652246;30;19931;-91
2023/12/16 01:34:09;;;;;;;6.95;1.88;;;;;;;;;;4645414;30;22632;-90
2023/12/16 01:36:35;;;;;;;5.78;2.15;;;;;;;;;;4660233;30;20524;-91
2023/12/16 01:39:02;;;;;;;5.72;2.13;;;;;;;;;;4659775;30;20056;-91
2023/12/16 01:41:28;;;;;;;11.15;2.38;;;;;;;;;;4636975;30;20054;-91
2023/12/16 01:43:54;;;;;;;6.97;2.40;;;;;;;;;;4655515;30;21082;-92
2023/12/16 01:46:20;;;;;;;10.70;3.03;;;;;;;;;;4648156;30;20405;-91
2023/12/16 01:48:46;;;;;;;4.93;2.20;;;;;;;;;;4641751;30;20042;-90
2023/12/16 01:51:12;;;;;;;9.65;2.92;;;;;;;;;;4646856;30;20054;-90
2023/12/16 01:53:38;;;;;;;4.78;2.58;;;;;;;;;;4650824;30;20060;-91
2023/12/16 01:56:05;;;;;;;11.27;3.17;;;;;;;;;;4636507;30;20124;-91
2023/12/16 01:58:31;;;;;;;6.90;2.50;;;;;;;;;;4656382;30;20049;-92
2023/12/16 02:00:57;;;;;;;8.05;2.78;;;;;;;;;;4649185;30;20059;-90
2023/12/16 02:03:24;;;;;;;8.52;2.90;;;;;;;;;;4635662;30;20050;-91
2023/12/16 02:05:50;;;;;;;9.30;2.58;;;;;;;;;;4661778;30;20042;-91
2023/12/16 02:08:16;;;;;;;5.72;2.63;;;;;;;;;;4651875;30;20047;-91
2023/12/16 02:10:43;;;;;;;8.20;3.10;;;;;;;;;;4650807;30;20597;-90
2023/12/16 02:13:09;;;;;;;4.80;2.35;;;;;;;;;;4662566;30;20827;-92
2023/12/16 02:15:35;;;;;;;7.47;2.80;;;;;;;;;;4646100;30;20061;-91
2023/12/16 02:18:01;;;;;;;6.93;2.45;;;;;;;;;;4648084;30;20058;-92
2023/12/16 02:20:27;;;;;;;8.10;2.72;;;;;;;;;;4644914;30;20069;-91
2023/12/16 02:22:54;;;;;;;8.65;3.00;;;;;;;;;;4625870;30;20074;-92
2023/12/16 02:25:20;;;;;;;7.82;2.85;;;;;;;;;;4647753;30;20056;-91
2023/12/16 02:27:46;;;;;;;15.93;3.38;;;;;;;;;;4666277;30;20042;-91
2023/12/16 02:30:12;;;;;;;5.80;2.50;;;;;;;;;;4646311;30;20147;-92
2023/12/16 02:32:41;;;;;;;8.00;2.90;;;;;;;;;;4666353;30;20042;-92
2023/12/16 02:35:07;;;;;;;7.18;2.22;;;;;;;;;;4635196;30;20689;-92
2023/12/16 02:37:33;;;;;;;6.13;2.50;;;;;;;;;;4646472;30;20054;-91
2023/12/16 02:39:59;;;;;;;8.52;2.40;;;;;;;;;;4642043;30;20054;-91
2023/12/16 02:42:25;;;;;;;7.65;2.28;;;;;;;;;;4665887;30;20497;-91
2023/12/16 02:44:51;;;;;;;6.07;2.40;;;;;;;;;;4650529;30;20046;-92
2023/12/16 02:47:17;;;;;;;8.52;2.70;;;;;;;;;;4651644;30;20042;-93
2023/12/16 02:49:44;;;;;;;5.82;2.35;;;;;;;;;;4652349;30;20093;-91
2023/12/16 02:52:10;;;;;;;5.32;2.50;;;;;;;;;;4656063;30;20060;-91
2023/12/16 02:54:36;;;;;;;4.03;2.67;;;;;;;;;;4663720;30;20096;-91
2023/12/16 02:57:02;;;;;;;6.30;2.17;;;;;;;;;;4653048;30;20073;-91
2023/12/16 02:59:29;;;;;;;8.55;2.80;;;;;;;;;;4651484;30;20065;-91
2023/12/16 03:01:55;;;;;;;6.57;2.50;;;;;;;;;;4645004;30;20054;-91
2023/12/16 03:04:21;;;;;;;6.45;2.47;;;;;;;;;;4655037;30;20084;-91
2023/12/16 03:06:50;;;;;;;9.32;2.97;;;;;;;;;;4661101;30;20058;-92
2023/12/16 03:09:16;;;;;;;5.28;2.20;;;;;;;;;;4650670;30;20049;-91
2023/12/16 03:11:42;;;;;;;7.53;2.15;;;;;;;;;;4653358;30;20057;-92
2023/12/16 03:14:08;;;;;;;8.82;2.42;;;;;;;;;;4664567;30;20562;-92
2023/12/16 03:16:34;;;;;;;7.30;2.53;;;;;;;;;;4651556;30;20066;-91
2023/12/16 03:19:00;;;;;;;6.53;2.25;;;;;;;;;;4637439;30;20050;-91
2023/12/16 03:21:26;;;;;;;6.30;2.17;;;;;;;;;;4652490;30;20041;-92
2023/12/16 03:23:52;;;;;;;8.82;2.17;;;;;;;;;;4668924;30;20071;-93
2023/12/16 03:26:20;;;;;;;8.50;2.45;;;;;;;;;;4670638;30;20034;-91
2023/12/16 03:28:46;;;;;;;8.93;2.65;;;;;;;;;;4635225;30;20042;-91
2023/12/16 03:31:12;;;;;;;8.63;2.25;;;;;;;;;;4657446;30;20053;-91
2023/12/16 03:33:38;;;;;;;6.78;2.65;;;;;;;;;;4664544;30;20112;-91
2023/12/16 03:36:04;;;;;;;4.70;2.63;;;;;;;;;;4652716;30;20128;-92
2023/12/16 03:38:31;;;;;;;7.90;2.83;;;;;;;;;;4649315;30;20132;-91
2023/12/16 03:40:57;;;;;;;7.93;2.60;;;;;;;;;;4657604;30;20049;-93
2023/12/16 03:43:23;;;;;;;12.48;2.80;;;;;;;;;;4651257;30;20049;-91
2023/12/16 03:45:52;;;;;;;10.15;3.08;;;;;;;;;;4644852;30;20061;-92
2023/12/16 03:48:19;;;;;;;10.35;2.90;;;;;;;;;;4653942;30;20045;-92
2023/12/16 03:50:45;;;;;;;9.20;2.40;;;;;;;;;;4640623;30;20058;-91
2023/12/16 03:53:11;;;;;;;8.70;3.15;;;;;;;;;;4636562;30;20058;-92
2023/12/16 03:55:37;;;;;;;8.75;3.42;;;;;;;;;;4639912;30;20058;-92
2023/12/16 03:58:03;;;;;;;3.25;2.13;;;;;;;;;;4648235;30;20065;-92
2023/12/16 04:00:29;;;;;;;8.68;2.40;;;;;;;;;;4654020;30;20050;-91
2023/12/16 04:02:55;;;;;;;11.00;2.78;;;;;;;;;;4651104;30;20045;-91
2023/12/16 04:05:21;;;;;;;5.55;2.75;;;;;;;;;;4651338;30;20126;-92
2023/12/16 04:07:48;;;;;;;6.07;2.42;;;;;;;;;;4651767;30;20050;-92
2023/12/16 04:10:14;;;;;;;7.15;1.95;;;;;;;;;;4673632;30;20173;-92
2023/12/16 04:12:40;;;;;;;9.52;2.60;;;;;;;;;;4662714;30;20891;-92
2023/12/16 04:15:06;;;;;;;9.93;2.60;;;;;;;;;;4635866;30;20080;-91
2023/12/16 04:17:32;;;;;;;8.85;2.83;;;;;;;;;;4652097;30;20046;-91
2023/12/16 04:19:58;;;;;;;10.20;2.65;;;;;;;;;;4635243;30;20078;-91
2023/12/16 04:22:24;;;;;;;9.43;2.80;;;;;;;;;;4639096;30;20058;-92
2023/12/16 04:24:57;;;;;;;8.20;2.60;;;;;;;;;;4642847;30;20069;-91
2023/12/16 04:27:24;;;;;;;13.02;3.30;;;;;;;;;;4652101;30;20187;-93
2023/12/16 04:29:53;;;;;;;12.52;3.47;;;;;;;;;;4644391;30;20120;-93
2023/12/16 04:32:19;;;;;;;9.52;2.60;;;;;;;;;;4640742;30;20050;-92
2023/12/16 04:34:45;;;;;;;6.35;2.42;;;;;;;;;;4648759;30;20179;-91
2023/12/16 04:37:11;;;;;;;8.93;2.75;;;;;;;;;;4620207;30;20129;-91
2023/12/16 04:39:38;;;;;;;10.25;3.25;;;;;;;;;;4636775;30;20186;-91
2023/12/16 04:42:04;;;;;;;10.52;2.50;;;;;;;;;;4666715;30;20181;-92
2023/12/16 04:44:30;;;;;;;11.18;3.10;;;;;;;;;;4648053;30;20050;-92
2023/12/16 04:46:56;;;;;;;9.07;2.15;;;;;;;;;;4661216;30;20081;-91
2023/12/16 04:49:22;;;;;;;12.15;2.20;;;;;;;;;;4644069;30;20087;-91
2023/12/16 04:51:48;;;;;;;10.45;2.88;;;;;;;;;;4651031;30;20046;-91
2023/12/16 04:54:14;;;;;;;8.27;2.35;;;;;;;;;;4660185;30;20128;-92
2023/12/16 04:56:40;;;;;;;9.60;2.90;;;;;;;;;;4655766;30;20141;-91
2023/12/16 04:59:07;;;;;;;8.30;2.60;;;;;;;;;;4642851;30;20049;-91
2023/12/16 05:01:33;;;;;;;12.60;3.40;;;;;;;;;;4669565;30;20192;-92
2023/12/16 05:03:59;;;;;;;5.57;2.17;;;;;;;;;;4651927;30;20939;-92
2023/12/16 05:06:25;;;;;;;14.38;2.75;;;;;;;;;;4648140;30;20048;-91
2023/12/16 05:08:51;;;;;;;12.35;2.80;;;;;;;;;;4652145;30;20057;-91
2023/12/16 05:11:17;;;;;;;14.68;3.35;;;;;;;;;;4668607;30;20084;-92
2023/12/16 05:13:43;;;;;;;9.00;2.63;;;;;;;;;;4649897;30;20050;-91
2023/12/16 05:16:09;;;;;;;11.68;3.28;;;;;;;;;;4641923;30;23046;-92
2023/12/16 05:18:36;;;;;;;10.25;2.47;;;;;;;;;;4662050;30;20077;-91
2023/12/16 05:21:02;;;;;;;6.68;2.47;;;;;;;;;;4662427;30;20176;-91
2023/12/16 05:23:28;;;;;;;10.25;2.85;;;;;;;;;;4664256;30;20152;-91
2023/12/16 05:25:54;;;;;;;11.75;3.05;;;;;;;;;;4670068;30;20050;-91
2023/12/16 05:28:20;;;;;;;11.40;3.15;;;;;;;;;;4656731;30;20080;-90
2023/12/16 05:30:46;;;;;;;9.57;2.67;;;;;;;;;;4649199;30;20713;-91
2023/12/16 05:33:12;;;;;;;6.88;2.80;;;;;;;;;;4647942;30;20056;-91
2023/12/16 05:35:38;;;;;;;10.10;2.83;;;;;;;;;;4662452;30;20050;-92
2023/12/16 05:38:04;;;;;;;7.80;2.78;;;;;;;;;;4673464;30;20107;-91
2023/12/16 05:40:30;;;;;;;9.52;2.85;;;;;;;;;;4652701;30;20053;-90
2023/12/16 05:42:56;;;;;;;7.28;2.45;;;;;;;;;;4649450;30;20050;-91
2023/12/16 05:45:22;;;;;;;10.95;2.97;;;;;;;;;;4654619;30;20053;-90
2023/12/16 05:47:51;;;;;;;13.00;2.90;;;;;;;;;;4654065;30;20160;-92
2023/12/16 05:50:17;;;;;;;10.68;2.80;;;;;;;;;;4665507;30;20149;-91
2023/12/16 05:52:43;;;;;;;9.02;3.03;;;;;;;;;;4652251;30;20520;-89
2023/12/16 05:55:10;;;;;;;10.45;3.42;;;;;;;;;;4632230;30;20057;-91
2023/12/16 05:57:38;;;;;;;8.85;3.15;;;;;;;;;;4646589;30;20050;-91
2023/12/16 06:00:05;;;;;;;;;;;;;;;;;;4650078;30;20624;-92
2023/12/16 06:02:31;;;;;;;9.75;2.88;;;;;;;;;;4685892;30;19931;-91
2023/12/16 06:04:57;;;;;;;14.95;2.67;;;;;;;;;;4649708;30;20136;-91
2023/12/16 06:07:23;;;;;;;9.10;2.83;;;;;;;;;;4654880;30;20132;-91
2023/12/16 06:09:49;;;;;;;13.77;3.00;;;;;;;;;;4664555;30;20049;-92
2023/12/16 06:12:15;;;;;;;12.95;3.25;;;;;;;;;;4653016;30;20133;-91
2023/12/16 06:14:41;;;;;;;10.75;3.20;;;;;;;;;;4648445;30;20053;-91
2023/12/16 06:17:07;;;;;;;11.75;3.13;;;;;;;;;;4648918;30;22745;-91
2023/12/16 06:19:33;;;;;;;11.65;4.15;;;;;;;;;;4656248;30;20147;-91
2023/12/16 06:21:59;;;;;;;12.57;3.85;;;;;;;;;;4645914;30;20066;-91
2023/12/16 06:24:29;;;;;;;14.13;3.33;;;;;;;;;;4639736;30;20488;-91
2023/12/16 06:26:55;;;;;;;12.75;4.78;;;;;;;;;;4652186;30;20046;-91
2023/12/16 06:29:21;;;;;;;6.97;3.40;;;;;;;;;;4663051;30;20046;-92
2023/12/16 06:31:50;;;;;;;9.38;3.08;;;;;;;;;;4667112;30;20132;-92
2023/12/16 06:34:19;;;;;;;9.27;3.13;;;;;;;;;;4643925;30;20104;-91
2023/12/16 06:36:45;;;;;;;13.57;3.00;;;;;;;;;;4670570;30;20522;-92
2023/12/16 06:39:12;;;;;;;13.77;3.67;;;;;;;;;;4654904;30;20113;-92
2023/12/16 06:41:38;;;;;;;6.57;2.75;;;;;;;;;;4647040;30;20046;-91
2023/12/16 06:44:04;;;;;;;10.75;3.92;;;;;;;;;;4647619;30;20057;-92
2023/12/16 06:46:30;;;;;;;15.75;3.80;;;;;;;;;;4647919;30;20073;-92
2023/12/16 06:48:56;;;;;;;10.40;3.70;;;;;;;;;;4649460;30;20053;-92
2023/12/16 06:51:23;;;;;;;17.25;4.38;;;;;;;;;;4651369;30;20062;-92
2023/12/16 06:53:49;;;;;;;12.55;4.07;;;;;;;;;;4662872;30;20133;-92
2023/12/16 06:56:15;;;;;;;15.52;3.75;;;;;;;;;;4651930;30;20064;-91
2023/12/16 06:58:43;;;;;;;15.80;3.85;;;;;;;;;;4660512;30;20062;-91
2023/12/16 07:01:12;;;;;;;10.18;4.35;;;;;;;;;;4654584;30;20155;-92
2023/12/16 07:03:38;;;;;;;12.40;3.80;;;;;;;;;;4658099;30;20057;-91
2023/12/16 07:06:05;;;;;;;10.60;3.85;;;;;;;;;;4634390;30;20105;-91
2023/12/16 07:08:31;;;;;;;13.10;4.25;;;;;;;;;;4663264;30;20034;-91
2023/12/16 07:10:57;;;;;;;20.90;4.00;;;;;;;;;;4634300;30;20054;-92
2023/12/16 07:13:24;;;;;;;11.77;3.42;;;;;;;;;;4666323;30;20137;-92
2023/12/16 07:15:52;;;;;;;15.82;4.65;;;;;;;;;;4647973;30;20050;-92
2023/12/16 07:18:18;;;;;;;13.65;4.43;;;;;;;;;;4647381;30;20064;-91
2023/12/16 07:20:44;;;;;;;13.48;4.25;;;;;;;;;;4622680;30;20053;-91
2023/12/16 07:23:10;;;;;;;13.43;4.25;;;;;;;;;;4633040;30;21709;-92
2023/12/16 07:25:37;;;;;;;14.18;4.57;;;;;;;;;;4635621;30;20069;-91
2023/12/16 07:28:03;;;;;;;14.27;3.95;;;;;;;;;;4647592;30;20519;-92
2023/12/16 07:30:30;;;;;;;15.20;4.28;;;;;;;;;;4637215;30;20046;-91
2023/12/16 07:32:56;;;;;;;18.08;4.75;;;;;;;;;;4633099;30;20165;-91
2023/12/16 07:35:22;;;;;;;15.45;4.30;;;;;;;;;;4661576;30;20451;-91
2023/12/16 07:37:51;;;;;;;11.43;4.82;;;;;;;;;;4661090;30;20049;-92
2023/12/16 07:40:17;;;;;;;19.25;4.50;;;;;;;;;;4652811;30;20101;-91
2023/12/16 07:42:44;;;;;;;15.27;3.90;;;;;;;;;;4645858;30;20066;-92
2023/12/16 07:45:10;;;;;;;14.45;4.20;;;;;;;;;;4648146;30;20104;-92
2023/12/16 07:47:36;;;;;;;16.20;4.30;;;;;;;;;;4646918;30;20083;-91
2023/12/16 07:50:03;;;;;;;12.90;4.45;;;;;;;;;;4634166;30;20420;-90
2023/12/16 07:52:29;;;;;;;12.52;4.80;;;;;;;;;;4658471;30;20046;-92
2023/12/16 07:54:55;;;;;;;15.02;4.15;;;;;;;;;;4636583;30;20053;-94
2023/12/16 07:57:21;;;;;;;12.38;4.35;;;;;;;;;;4638624;30;20112;-93
2023/12/16 07:59:50;;;;;;;11.07;4.15;;;;;;;;;;4639081;30;20150;-93
2023/12/16 08:02:16;;;;;;;12.20;4.90;;;;;;;;;;4623198;30;20093;-93
2023/12/16 08:04:42;;;;;;;12.80;5.32;;;;;;;;;;4637666;30;20042;-91
2023/12/16 08:07:10;;;;;;;14.00;5.38;;;;;;;;;;4637367;30;20778;-92
2023/12/16 08:09:36;;;;;;;12.05;4.15;;;;;;;;;;4652433;30;22101;-92
2023/12/16 08:12:03;;;;;;;15.82;5.30;;;;;;;;;;4633125;30;21001;-93
2023/12/16 08:14:29;;;;;;;16.70;4.80;;;;;;;;;;4626884;30;20141;-93
2023/12/16 08:16:55;;;;;;;18.88;5.32;;;;;;;;;;4641044;30;20460;-91
2023/12/16 08:19:21;;;;;;;17.27;4.90;;;;;;;;;;4639557;30;20053;-91
2023/12/16 08:21:50;;;;;;;13.73;4.78;;;;;;;;;;4631061;30;20061;-93
2023/12/16 08:24:19;;;;;;;14.80;5.10;;;;;;;;;;4643140;30;20084;-92
2023/12/16 08:26:50;;;;;;;15.45;5.40;;;;;;;;;;4645032;30;20057;-93
2023/12/16 08:29:16;;;;;;;16.95;5.90;;;;;;;;;;4667691;30;20045;-91
2023/12/16 08:31:44;;;;;;;18.23;4.65;;;;;;;;;;4629655;30;20665;-92
2023/12/16 08:34:10;;;;;;;17.35;4.95;;;;;;;;;;4619898;30;20154;-92
2023/12/16 08:36:39;;;;;;;13.98;4.97;;;;;;;;;;4642972;30;20582;-92
2023/12/16 08:39:05;;;;;;;13.27;5.18;;;;;;;;;;4636102;30;20192;-92
2023/12/16 08:41:32;;;;;;;14.57;4.90;;;;;;;;;;4620575;30;20737;-92
2023/12/16 08:43:58;;;;;;;10.70;4.47;;;;;;;;;;4645452;30;20081;-92
2023/12/16 08:46:25;;;;;;;20.00;7.13;;;;;;;;;;4653753;30;20050;-93
2023/12/16 08:48:53;;;;;;;17.35;4.57;;;;;;;;;;4642757;30;20081;-92
2023/12/16 08:51:22;;;;;;;16.73;6.13;;;;;;;;;;4653050;30;20050;-93
2023/12/16 08:53:49;;;;;;;21.75;6.15;;;;;;;;;;4668559;30;20073;-94
2023/12/16 08:56:18;;;;;;;14.73;5.40;;;;;;;;;;4632681;30;20054;-93
2023/12/16 08:58:47;;;;;;;16.48;5.28;;;;;;;;;;4642995;30;20101;-93
2023/12/16 09:01:15;;;;;;;18.63;5.25;;;;;;;;;;4647470;30;20397;-92
2023/12/16 09:03:42;;;;;;;16.40;5.22;;;;;;;;;;4642183;30;20046;-92
2023/12/16 09:06:09;;;;;;;17.48;5.07;;;;;;;;;;4631380;30;20049;-91
2023/12/16 09:08:35;;;;;;;20.30;5.50;;;;;;;;;;4647565;30;20046;-92
2023/12/16 09:11:01;;;;;;;13.82;6.30;;;;;;;;;;4635298;30;20105;-92
2023/12/16 09:13:27;;;;;;;18.75;5.18;;;;;;;;;;4649737;30;20054;-93
2023/12/16 09:15:53;;;;;;;18.13;6.32;;;;;;;;;;4642682;30;20053;-92
2023/12/16 09:18:19;;;;;;;21.58;5.82;;;;;;;;;;4634085;30;20070;-93
2023/12/16 09:20:46;;;;;;;15.05;5.32;;;;;;;;;;4660002;30;20081;-92
2023/12/16 09:23:14;;;;;;;14.55;5.50;;;;;;;;;;4652119;30;20102;-92
2023/12/16 09:25:42;;;;;;;22.08;6.57;;;;;;;;;;4658692;30;20070;-92
2023/12/16 09:28:09;;;;;;;16.98;5.45;;;;;;;;;;4645339;30;20089;-93
2023/12/16 09:30:36;;;;;;;18.17;5.72;;;;;;;;;;4646778;30;20057;-92
2023/12/16 09:33:04;;;;;;;11.38;5.20;;;;;;;;;;4646445;30;20424;-92
2023/12/16 09:35:31;;;;;;;23.33;6.25;;;;;;;;;;4667352;30;20045;-92
2023/12/16 09:37:58;;;;;;;21.58;6.13;;;;;;;;;;4631158;30;20054;-92
2023/12/16 09:40:26;;;;;;;17.60;6.25;;;;;;;;;;4638686;30;20552;-92
2023/12/16 09:42:52;;;;;;;16.98;5.25;;;;;;;;;;4662950;30;20161;-93
2023/12/16 09:45:20;;;;;;;26.30;6.30;;;;;;;;;;4653108;30;20496;-92
2023/12/16 09:47:48;;;;;;;18.83;5.90;;;;;;;;;;4640182;30;20092;-92
2023/12/16 09:50:14;;;;;;;21.80;5.85;;;;;;;;;;4636150;30;20042;-93
2023/12/16 09:52:40;;;;;;;27.13;6.70;;;;;;;;;;4642129;30;20062;-91
2023/12/16 09:55:07;;;;;;;23.58;6.80;;;;;;;;;;4637309;30;20136;-93
2023/12/16 09:57:35;;;;;;;23.98;7.07;;;;;;;;;;4650341;30;20058;-92
2023/12/16 10:00:01;;;;;;;20.40;6.90;;;;;;;;;;4634555;30;20053;-92
2023/12/16 10:02:27;;;;;;;24.58;7.13;;;;;;;;;;4650952;30;20069;-92
2023/12/16 10:04:55;;;;;;;23.33;7.75;;;;;;;;;;4658476;30;20062;-93
2023/12/16 10:07:23;;;;;;;22.42;7.07;;;;;;;;;;4638178;30;20669;-93
2023/12/16 10:10:09;;;;;;;18.88;6.75;;;;;;;;;;4671066;30;20052;-92
2023/12/16 10:12:35;;;;;;;27.42;6.82;;;;;;;;;;4654859;30;20089;-93
2023/12/16 10:15:01;;;;;;;24.85;7.72;;;;;;;;;;4666097;30;20061;-93
2023/12/16 10:17:28;;;;;;;27.98;7.00;;;;;;;;;;4646627;30;20050;-92
2023/12/16 10:19:54;;;;;;;22.60;7.45;;;;;;;;;;4650119;30;20085;-92
2023/12/16 10:22:20;;;;;;;24.17;7.93;;;;;;;;;;4644863;30;20085;-92
2023/12/16 10:24:47;;;;;;;26.45;8.38;;;;;;;;;;4667810;30;20049;-91
2023/12/16 10:27:18;;;;;;;19.60;7.13;;;;;;;;;;4662571;30;20512;-92
2023/12/16 10:29:44;;;;;;;22.58;7.88;;;;;;;;;;4645344;30;20757;-93
2023/12/16 10:32:17;;;;;;;23.65;7.90;;;;;;;;;;4660436;30;20053;-92
2023/12/16 10:34:43;;;;;;;28.17;8.77;;;;;;;;;;4672122;30;20058;-92
2023/12/16 10:37:09;;;;;;;34.58;9.18;;;;;;;;;;4639945;30;20184;-93
2023/12/16 10:39:36;;;;;;;26.63;8.32;;;;;;;;;;4652163;30;20051;-92
2023/12/16 10:42:02;;;;;;;30.40;9.05;;;;;;;;;;4656217;30;20064;-92
2023/12/16 10:44:28;;;;;;;22.02;9.00;;;;;;;;;;4656872;30;20046;-92
2023/12/16 10:46:54;;;;;;;33.28;9.80;;;;;;;;;;4657109;30;20485;-93
2023/12/16 10:49:28;;;;;;;30.77;9.82;;;;;;;;;;4638079;30;21547;-93
2023/12/16 10:51:56;;;;;;;28.90;10.18;;;;;;;;;;4645581;30;20053;-93
2023/12/16 10:54:51;;;;;;;24.70;9.50;;;;;;;;;;4650382;30;20137;-91
2023/12/16 10:57:21;;;;;;;29.30;11.02;;;;;;;;;;4652042;30;20712;-92
2023/12/16 11:00:07;;;;;;;30.60;10.65;;;;;;;;;;4670219;30;20313;-93
2023/12/16 11:02:52;;;;;;;34.15;11.50;;;;;;;;;;4666472;30;20054;-92
2023/12/16 11:05:39;;;;;;;35.10;12.27;;;;;;;;;;4673765;30;20049;-93
2023/12/16 11:08:05;;;;;;;29.30;11.70;;;;;;;;;;4662003;30;20057;-93
2023/12/16 11:10:31;;;;;;;29.88;11.30;;;;;;;;;;4663053;30;20053;-93
2023/12/16 11:12:58;;;;;;;32.97;11.93;;;;;;;;;;4647572;30;20133;-92
2023/12/16 11:15:24;;;;;;;26.48;11.15;;;;;;;;;;4660041;30;20050;-92
2023/12/16 11:18:16;;;;;;;29.35;11.40;;;;;;;;;;4626351;30;20057;-92
2023/12/16 11:20:49;;;;;;;29.83;12.88;;;;;;;;;;4641193;30;20139;-92
2023/12/16 11:23:18;;;;;;;30.42;11.32;;;;;;;;;;4646225;30;20166;-92
2023/12/16 11:25:45;;;;;;;29.27;11.80;;;;;;;;;;4633933;30;20080;-93
2023/12/16 11:28:14;;;;;;;33.28;11.45;;;;;;;;;;4648392;30;20056;-93
2023/12/16 11:30:43;;;;;;;27.70;12.02;;;;;;;;;;4636926;30;20076;-93
2023/12/16 11:33:09;;;;;;;23.17;11.63;;;;;;;;;;4668869;30;20144;-93
2023/12/16 11:35:38;;;;;;;29.92;11.18;;;;;;;;;;4641781;30;20141;-95
2023/12/16 11:38:07;;;;;;;25.13;12.07;;;;;;;;;;4663565;30;20129;-94
2023/12/16 11:40:42;;;;;;;28.27;12.85;;;;;;;;;;4642023;30;20576;-92
2023/12/16 11:43:08;;;;;;;28.85;12.48;;;;;;;;;;4670041;30;21575;-92
2023/12/16 11:45:38;;;;;;;31.17;12.10;;;;;;;;;;4648875;30;20759;-93
2023/12/16 11:48:08;;;;;;;29.00;11.88;;;;;;;;;;4647211;30;20147;-92
2023/12/16 11:50:34;;;;;;;27.17;12.05;;;;;;;;;;4652253;30;20095;-94
2023/12/16 11:53:01;;;;;;;23.25;10.65;;;;;;;;;;4651906;30;20058;-94
2023/12/16 11:55:27;;;;;;;32.53;11.35;;;;;;;;;;4644937;30;20049;-93
2023/12/16 11:57:53;;;;;;;26.15;11.68;;;;;;;;;;4636882;30;20049;-93
2023/12/16 12:00:20;;;;;;;22.27;10.82;;;;;;;;;;4633931;30;20058;-93
2023/12/16 12:02:46;;;;;;;29.50;11.82;;;;;;;;;;4652073;30;20049;-93
2023/12/16 12:05:13;;;;;;;26.50;12.50;;;;;;;;;;4640648;30;20449;-93
2023/12/16 12:07:39;;;;;;;29.13;12.00;;;;;;;;;;4637538;30;20534;-92
2023/12/16 12:10:05;;;;;;;28.67;11.77;;;;;;;;;;4636212;30;20093;-93
2023/12/16 12:12:31;;;;;;;28.13;11.25;;;;;;;;;;4641123;30;20112;-93
2023/12/16 12:14:57;;;;;;;22.98;10.65;;;;;;;;;;4640390;30;20057;-93
2023/12/16 12:17:26;;;;;;;27.42;11.55;;;;;;;;;;4655799;30;20089;-93
2023/12/16 12:19:52;;;;;;;;;;;;;;;;;;4653978;30;20087;-92
2023/12/16 12:22:20;;;;;;;27.65;11.30;;;;;;;;;;4659776;30;19931;-92
2023/12/16 12:24:46;;;;;;;27.50;11.25;;;;;;;;;;4665738;30;20050;-94
2023/12/16 12:27:12;;;;;;;23.83;10.75;;;;;;;;;;4658272;30;20136;-92
2023/12/16 12:29:57;;;;;;;25.75;10.48;;;;;;;;;;4649269;30;20050;-91
2023/12/16 12:32:24;;;;;;;21.10;10.13;;;;;;;;;;4680726;30;20129;-93
2023/12/16 12:35:06;;;;;;;22.48;10.65;;;;;;;;;;4671059;30;20111;-94
2023/12/16 12:37:38;;;;;;;18.52;10.02;;;;;;;;;;4647619;30;20046;-92
2023/12/16 12:40:05;;;;;;;19.23;10.18;;;;;;;;;;4641710;30;20101;-93
2023/12/16 12:42:44;;;;;;;22.65;9.93;;;;;;;;;;4640873;30;20081;-93
2023/12/16 12:45:10;;;;;;;21.00;11.43;;;;;;;;;;4637869;30;20060;-92
2023/12/16 12:47:36;;;;;;;21.75;10.63;;;;;;;;;;4661113;30;20104;-92
2023/12/16 12:50:18;;;;;;;21.92;10.32;;;;;;;;;;4656130;30;20054;-93
2023/12/16 12:52:44;;;;;;;19.85;8.98;;;;;;;;;;4652719;30;20056;-93
2023/12/16 12:55:10;;;;;;;18.83;9.15;;;;;;;;;;4635090;30;20144;-93
2023/12/16 12:57:36;;;;;;;20.08;10.27;;;;;;;;;;4644014;30;21864;-93
2023/12/16 13:00:03;;;;;;;19.00;9.50;;;;;;;;;;4651369;30;20192;-92
2023/12/16 13:02:30;;;;;;;18.27;9.50;;;;;;;;;;4657224;30;20107;-91
2023/12/16 13:04:56;;;;;;;23.70;9.43;;;;;;;;;;4667825;30;20060;-91
2023/12/16 13:07:22;;;;;;;14.38;8.82;;;;;;;;;;4673166;30;20112;-92
2023/12/16 13:09:48;;;;;;;21.85;9.88;;;;;;;;;;4674977;30;20507;-93
2023/12/16 13:12:14;;;;;;;21.48;9.18;;;;;;;;;;4643831;30;20054;-92
2023/12/16 13:14:44;;;;;;;17.50;8.50;;;;;;;;;;4653019;30;20053;-92
2023/12/16 13:17:10;;;;;;;20.80;10.05;;;;;;;;;;4659082;30;21224;-93
2023/12/16 13:19:36;;;;;;;18.67;8.65;;;;;;;;;;4659658;30;20154;-93
2023/12/16 13:22:02;;;;;;;22.38;9.50;;;;;;;;;;4662727;30;20065;-91
2023/12/16 13:24:30;;;;;;;19.20;8.73;;;;;;;;;;4669923;30;20059;-92
2023/12/16 13:26:57;;;;;;;15.90;9.45;;;;;;;;;;4662653;30;20062;-92
2023/12/16 13:29:24;;;;;;;20.17;9.35;;;;;;;;;;4638232;30;20058;-92
2023/12/16 13:31:50;;;;;;;18.85;9.52;;;;;;;;;;4648028;30;20137;-92
2023/12/16 13:34:31;;;;;;;21.88;8.50;;;;;;;;;;4662600;30;20050;-92
2023/12/16 13:37:05;;;;;;;16.88;9.23;;;;;;;;;;4642027;30;20154;-94
2023/12/16 13:39:31;;;;;;;21.40;8.88;;;;;;;;;;4653536;30;20876;-93
2023/12/16 13:41:58;;;;;;;18.85;9.38;;;;;;;;;;4640789;30;20050;-92
2023/12/16 13:44:24;;;;;;;18.77;9.40;;;;;;;;;;4649789;30;20050;-91
2023/12/16 13:47:08;;;;;;;21.38;10.00;;;;;;;;;;4647915;30;20052;-92
2023/12/16 13:49:41;;;;;;;22.42;10.13;;;;;;;;;;4637504;30;20065;-92
2023/12/16 13:52:08;;;;;;;22.80;9.60;;;;;;;;;;4643063;30;20050;-92
2023/12/16 13:54:34;;;;;;;24.60;11.82;;;;;;;;;;4654342;30;20060;-93
2023/12/16 13:57:01;;;;;;;29.77;12.50;;;;;;;;;;4630090;30;20057;-93
2023/12/16 13:59:27;;;;;;;24.77;12.18;;;;;;;;;;4647888;30;20136;-93
2023/12/16 14:01:53;;;;;;;28.30;13.50;;;;;;;;;;4650082;30;20066;-92
2023/12/16 14:04:20;;;;;;;30.05;12.65;;;;;;;;;;4636625;30;20053;-92
2023/12/16 14:06:46;;;;;;;29.30;13.07;;;;;;;;;;4656057;30;20042;-92
2023/12/16 14:09:12;;;;;;;26.75;12.13;;;;;;;;;;4648502;30;20056;-93
2023/12/16 14:11:38;;;;;;;30.02;12.52;;;;;;;;;;4656095;30;20050;-93
2023/12/16 14:14:04;;;;;;;24.23;10.32;;;;;;;;;;4661168;30;20620;-93
2023/12/16 14:16:31;;;;;;;28.08;11.02;;;;;;;;;;4663574;30;20126;-94
2023/12/16 14:18:57;;;;;;;20.50;8.32;;;;;;;;;;4652604;30;20139;-92
2023/12/16 14:21:24;;;;;;;16.73;7.88;;;;;;;;;;4654460;30;20054;-92
2023/12/16 14:24:10;;;;;;;15.18;7.40;;;;;;;;;;4656060;30;20054;-92
2023/12/16 14:26:36;;;;;;;17.75;7.22;;;;;;;;;;4647727;30;20113;-92
2023/12/16 14:29:02;;;;;;;20.33;8.40;;;;;;;;;;4643712;30;20041;-92
2023/12/16 14:31:28;;;;;;;16.52;7.30;;;;;;;;;;4660733;30;20042;-93
2023/12/16 14:33:54;;;;;;;18.65;7.05;;;;;;;;;;4653718;30;20057;-93